KSIF

Details ICAO KSIF
Name ROCKINGHAM COUNTY NC SHILOH
Region United States
Timezone America/New_York (UTC-5.0)
Plans Departing 5
Arriving 0
Stats Elevation 693 ft / 211 m (AMSL)
Location 36.437219° -79.851014°
Runways 1
Magnetic Variation 8.613° W
Sunrise 2017-12-17 12:26:40 UTC / 2017-12-17 07:26:40 Local
Sunset 2017-12-17 22:07:20 UTC / 2017-12-17 17:07:20 Local
Advertisement - Login to hide

Runways

ID Width Length Bearing (true) Bearing (mag) Surface Threshold Offset Overrun Length
13 100 ft / 30 m 5,196 ft / 1,584 m 124.69° 133.30° Asphalt 200 ft / 61 m 0 ft / 0 m
31 100 ft / 30 m 5,196 ft / 1,584 m 304.70° 313.31° Asphalt 0 ft / 0 m 0 ft / 0 m

Map

Weather


0- 5 10 15 20 25 30 35+ Temperature / ° C

Clouds and Precipitation
Forecast for 2017-12-17 12:00 UTC. Updated an hour ago

Ground ~20,000 ft ~40,000 ft Winds

METAR

KSIF 171025Z AUTO 00000KT 10SM CLR M02/M06 A3026 RMK AO2 T10171061

TAF

Not found

Frequencies

Recorded 119.77 MHz AWOS3
Unicom 122.80 MHz CTAF/UNICOM
Warning: Do not use this data for real-world aviation or navigation. No guarantee of current accuracy is given.